sensor_id;sensor_type;location;lat;lon;timestamp;temperature;humidity
17333;DHT22;8784;50.94667800;7.08448400;2023-04-01T00:01:56;11.70;99.90
17333;DHT22;8784;50.94667800;7.08448400;2023-04-01T00:04:23;11.70;99.90
17333;DHT22;8784;50.94667800;7.08448400;2023-04-01T00:06:50;11.70;99.90
17333;DHT22;8784;50.94667800;7.08448400;2023-04-01T00:09:19;11.80;99.90
17333;DHT22;8784;50.94667800;7.08448400;2023-04-01T00:11:46;11.80;99.90
17333;DHT22;8784;50.94667800;7.08448400;2023-04-01T00:14:12;11.70;99.90
17333;DHT22;8784;50.94667800;7.08448400;2023-04-01T00:16:39;11.80;99.90
17333;DHT22;8784;50.94667800;7.08448400;2023-04-01T00:19:06;11.80;99.90
17333;DHT22;8784;50.94667800;7.08448400;2023-04-01T00:21:33;11.80;99.90
17333;DHT22;8784;50.94667800;7.08448400;2023-04-01T00:24:01;11.70;99.90
17333;DHT22;8784;50.94667800;7.08448400;2023-04-01T00:26:29;11.80;99.90
17333;DHT22;8784;50.94667800;7.08448400;2023-04-01T00:28:56;11.80;99.90
17333;DHT22;8784;50.94667800;7.08448400;2023-04-01T00:31:23;11.80;99.90
17333;DHT22;8784;50.94667800;7.08448400;2023-04-01T00:33:51;11.90;99.90
17333;DHT22;8784;50.94667800;7.08448400;2023-04-01T00:36:20;11.90;99.90
17333;DHT22;8784;50.94667800;7.08448400;2023-04-01T00:38:49;11.90;99.90
17333;DHT22;8784;50.94667800;7.08448400;2023-04-01T00:41:16;11.90;99.90
17333;DHT22;8784;50.94667800;7.08448400;2023-04-01T00:43:47;11.90;99.90
17333;DHT22;8784;50.94667800;7.08448400;2023-04-01T00:46:15;11.90;99.90
17333;DHT22;8784;50.94667800;7.08448400;2023-04-01T00:48:43;11.90;99.90
17333;DHT22;8784;50.94667800;7.08448400;2023-04-01T00:51:15;11.90;99.90
17333;DHT22;8784;50.94667800;7.08448400;2023-04-01T00:53:46;11.90;99.90
17333;DHT22;8784;50.94667800;7.08448400;2023-04-01T00:56:16;11.90;99.90
17333;DHT22;8784;50.94667800;7.08448400;2023-04-01T00:58:48;11.80;99.90
17333;DHT22;8784;50.94667800;7.08448400;2023-04-01T01:01:15;11.70;99.90
17333;DHT22;8784;50.94667800;7.08448400;2023-04-01T01:03:42;11.60;99.90
17333;DHT22;8784;50.94667800;7.08448400;2023-04-01T01:06:26;11.60;99.90
17333;DHT22;8784;50.94667800;7.08448400;2023-04-01T01:09:07;11.70;99.90
17333;DHT22;8784;50.94667800;7.08448400;2023-04-01T01:11:39;11.80;99.90
17333;DHT22;8784;50.94667800;7.08448400;2023-04-01T01:14:18;11.80;99.90
17333;DHT22;8784;50.94667800;7.08448400;2023-04-01T01:16:53;11.90;99.90
17333;DHT22;8784;50.94667800;7.08448400;2023-04-01T01:19:40;11.80;99.90
17333;DHT22;8784;50.94667800;7.08448400;2023-04-01T01:22:26;11.90;99.90
17333;DHT22;8784;50.94667800;7.08448400;2023-04-01T01:25:16;11.90;99.90
17333;DHT22;8784;50.94667800;7.08448400;2023-04-01T01:27:54;11.90;99.90
17333;DHT22;8784;50.94667800;7.08448400;2023-04-01T01:30:37;11.90;99.90
17333;DHT22;8784;50.94667800;7.08448400;2023-04-01T01:33:24;11.90;99.90
17333;DHT22;8784;50.94667800;7.08448400;2023-04-01T01:35:58;11.90;99.90
17333;DHT22;8784;50.94667800;7.08448400;2023-04-01T01:38:31;12.00;99.90
17333;DHT22;8784;50.94667800;7.08448400;2023-04-01T01:41:02;12.00;99.90
17333;DHT22;8784;50.94667800;7.08448400;2023-04-01T01:43:33;12.00;99.90
17333;DHT22;8784;50.94667800;7.08448400;2023-04-01T01:46:05;12.00;99.90
17333;DHT22;8784;50.94667800;7.08448400;2023-04-01T01:48:34;12.00;99.90
17333;DHT22;8784;50.94667800;7.08448400;2023-04-01T01:51:04;11.80;99.90
17333;DHT22;8784;50.94667800;7.08448400;2023-04-01T01:53:31;11.80;99.90
17333;DHT22;8784;50.94667800;7.08448400;2023-04-01T01:55:58;11.70;99.90
17333;DHT22;8784;50.94667800;7.08448400;2023-04-01T01:58:28;11.70;99.90
17333;DHT22;8784;50.94667800;7.08448400;2023-04-01T02:00:59;11.60;99.90
17333;DHT22;8784;50.94667800;7.08448400;2023-04-01T02:03:29;11.60;99.90
17333;DHT22;8784;50.94667800;7.08448400;2023-04-01T02:05:59;11.50;99.90
17333;DHT22;8784;50.94667800;7.08448400;2023-04-01T02:08:30;11.40;99.90
17333;DHT22;8784;50.94667800;7.08448400;2023-04-01T02:11:02;11.30;99.90
17333;DHT22;8784;50.94667800;7.08448400;2023-04-01T02:13:35;11.30;99.90
17333;DHT22;8784;50.94667800;7.08448400;2023-04-01T02:16:11;11.10;99.90
17333;DHT22;8784;50.94667800;7.08448400;2023-04-01T02:18:39;11.10;99.90
17333;DHT22;8784;50.94667800;7.08448400;2023-04-01T02:21:09;10.80;99.90
17333;DHT22;8784;50.94667800;7.08448400;2023-04-01T02:23:38;10.80;99.90
17333;DHT22;8784;50.94667800;7.08448400;2023-04-01T02:26:06;10.80;99.90
17333;DHT22;8784;50.94667800;7.08448400;2023-04-01T02:28:36;10.80;99.90
17333;DHT22;8784;50.94667800;7.08448400;2023-04-01T02:31:05;10.70;99.90
17333;DHT22;8784;50.94667800;7.08448400;2023-04-01T02:33:35;10.70;99.90
17333;DHT22;8784;50.94667800;7.08448400;2023-04-01T02:36:02;10.80;99.90
17333;DHT22;8784;50.94667800;7.08448400;2023-04-01T02:38:30;10.70;99.90
17333;DHT22;8784;50.94667800;7.08448400;2023-04-01T02:40:59;10.70;99.90
17333;DHT22;8784;50.94667800;7.08448400;2023-04-01T02:43:27;10.60;99.90
17333;DHT22;8784;50.94667800;7.08448400;2023-04-01T02:45:54;10.40;99.90
17333;DHT22;8784;50.94667800;7.08448400;2023-04-01T02:48:21;10.60;99.90
17333;DHT22;8784;50.94667800;7.08448400;2023-04-01T02:50:48;10.50;99.90
17333;DHT22;8784;50.94667800;7.08448400;2023-04-01T02:53:15;10.50;99.90
17333;DHT22;8784;50.94667800;7.08448400;2023-04-01T02:55:47;10.50;99.90
17333;DHT22;8784;50.94667800;7.08448400;2023-04-01T02:58:17;10.50;99.90
17333;DHT22;8784;50.94667800;7.08448400;2023-04-01T03:00:44;10.50;99.90
17333;DHT22;8784;50.94667800;7.08448400;2023-04-01T03:03:11;10.40;99.90
17333;DHT22;8784;50.94667800;7.08448400;2023-04-01T03:05:39;10.40;99.90
17333;DHT22;8784;50.94667800;7.08448400;2023-04-01T03:08:06;10.40;99.90
17333;DHT22;8784;50.94667800;7.08448400;2023-04-01T03:10:32;10.30;99.90
17333;DHT22;8784;50.94667800;7.08448400;2023-04-01T03:12:59;10.30;99.90
17333;DHT22;8784;50.94667800;7.08448400;2023-04-01T03:15:28;10.30;99.90
17333;DHT22;8784;50.94667800;7.08448400;2023-04-01T03:17:55;10.30;99.90
17333;DHT22;8784;50.94667800;7.08448400;2023-04-01T03:20:22;10.30;99.90
17333;DHT22;8784;50.94667800;7.08448400;2023-04-01T03:22:49;10.30;99.90
17333;DHT22;8784;50.94667800;7.08448400;2023-04-01T03:25:16;10.30;99.90
17333;DHT22;8784;50.94667800;7.08448400;2023-04-01T03:27:42;10.20;99.90
17333;DHT22;8784;50.94667800;7.08448400;2023-04-01T03:30:10;10.20;99.90
17333;DHT22;8784;50.94667800;7.08448400;2023-04-01T03:32:38;10.20;99.90
17333;DHT22;8784;50.94667800;7.08448400;2023-04-01T03:35:06;10.20;99.90
17333;DHT22;8784;50.94667800;7.08448400;2023-04-01T03:37:35;10.20;99.90
17333;DHT22;8784;50.94667800;7.08448400;2023-04-01T03:40:02;10.20;99.90
17333;DHT22;8784;50.94667800;7.08448400;2023-04-01T03:42:29;10.20;99.90
17333;DHT22;8784;50.94667800;7.08448400;2023-04-01T03:44:57;10.20;99.90
17333;DHT22;8784;50.94667800;7.08448400;2023-04-01T03:47:24;10.20;99.90
17333;DHT22;8784;50.94667800;7.08448400;2023-04-01T03:49:52;10.20;99.90
17333;DHT22;8784;50.94667800;7.08448400;2023-04-01T03:52:19;10.30;99.90
17333;DHT22;8784;50.94667800;7.08448400;2023-04-01T03:54:46;10.20;99.90
17333;DHT22;8784;50.94667800;7.08448400;2023-04-01T03:57:13;10.40;99.90
17333;DHT22;8784;50.94667800;7.08448400;2023-04-01T03:59:40;10.40;99.90
17333;DHT22;8784;50.94667800;7.08448400;2023-04-01T04:02:07;10.40;99.90
17333;DHT22;8784;50.94667800;7.08448400;2023-04-01T04:04:34;10.40;99.90
17333;DHT22;8784;50.94667800;7.08448400;2023-04-01T04:07:02;10.40;99.90
17333;DHT22;8784;50.94667800;7.08448400;2023-04-01T04:09:30;10.50;99.90
17333;DHT22;8784;50.94667800;7.08448400;2023-04-01T04:11:56;10.40;99.90
17333;DHT22;8784;50.94667800;7.08448400;2023-04-01T04:14:23;10.40;99.90
17333;DHT22;8784;50.94667800;7.08448400;2023-04-01T04:16:50;10.40;99.90
17333;DHT22;8784;50.94667800;7.08448400;2023-04-01T04:19:17;10.50;99.90
17333;DHT22;8784;50.94667800;7.08448400;2023-04-01T04:21:44;10.50;99.90
17333;DHT22;8784;50.94667800;7.08448400;2023-04-01T04:24:12;10.50;99.90
17333;DHT22;8784;50.94667800;7.08448400;2023-04-01T04:26:39;10.50;99.90
17333;DHT22;8784;50.94667800;7.08448400;2023-04-01T04:29:06;10.60;99.90
17333;DHT22;8784;50.94667800;7.08448400;2023-04-01T04:31:33;10.60;99.90
17333;DHT22;8784;50.94667800;7.08448400;2023-04-01T04:34:00;10.60;99.90
17333;DHT22;8784;50.94667800;7.08448400;2023-04-01T04:36:27;10.60;99.90
17333;DHT22;8784;50.94667800;7.08448400;2023-04-01T04:38:54;10.60;99.90
17333;DHT22;8784;50.94667800;7.08448400;2023-04-01T04:41:22;10.70;99.90
17333;DHT22;8784;50.94667800;7.08448400;2023-04-01T04:43:51;10.70;99.90
17333;DHT22;8784;50.94667800;7.08448400;2023-04-01T04:46:18;10.70;99.90
17333;DHT22;8784;50.94667800;7.08448400;2023-04-01T04:48:45;10.70;99.90
17333;DHT22;8784;50.94667800;7.08448400;2023-04-01T04:51:16;10.70;99.90
17333;DHT22;8784;50.94667800;7.08448400;2023-04-01T04:53:43;10.80;99.90
17333;DHT22;8784;50.94667800;7.08448400;2023-04-01T04:56:10;10.70;99.90
17333;DHT22;8784;50.94667800;7.08448400;2023-04-01T04:58:39;10.60;99.90
17333;DHT22;8784;50.94667800;7.08448400;2023-04-01T05:01:07;10.70;99.90
17333;DHT22;8784;50.94667800;7.08448400;2023-04-01T05:03:34;10.70;99.90
17333;DHT22;8784;50.94667800;7.08448400;2023-04-01T05:06:02;10.60;99.90
17333;DHT22;8784;50.94667800;7.08448400;2023-04-01T05:08:29;10.60;99.90
17333;DHT22;8784;50.94667800;7.08448400;2023-04-01T05:10:55;10.60;99.90
17333;DHT22;8784;50.94667800;7.08448400;2023-04-01T05:13:22;10.70;99.90
17333;DHT22;8784;50.94667800;7.08448400;2023-04-01T05:15:50;10.60;99.90
17333;DHT22;8784;50.94667800;7.08448400;2023-04-01T05:18:17;10.50;99.90
17333;DHT22;8784;50.94667800;7.08448400;2023-04-01T05:20:48;10.60;99.90
17333;DHT22;8784;50.94667800;7.08448400;2023-04-01T05:23:14;10.50;99.90
17333;DHT22;8784;50.94667800;7.08448400;2023-04-01T05:25:41;10.50;99.90
17333;DHT22;8784;50.94667800;7.08448400;2023-04-01T05:28:08;10.60;99.90
17333;DHT22;8784;50.94667800;7.08448400;2023-04-01T05:30:35;10.60;99.90
17333;DHT22;8784;50.94667800;7.08448400;2023-04-01T05:33:04;10.60;99.90
17333;DHT22;8784;50.94667800;7.08448400;2023-04-01T05:35:30;10.60;99.90
17333;DHT22;8784;50.94667800;7.08448400;2023-04-01T05:37:57;10.70;99.90
17333;DHT22;8784;50.94667800;7.08448400;2023-04-01T05:40:24;10.70;99.90
17333;DHT22;8784;50.94667800;7.08448400;2023-04-01T05:42:51;10.60;99.90
17333;DHT22;8784;50.94667800;7.08448400;2023-04-01T05:45:18;10.60;99.90
17333;DHT22;8784;50.94667800;7.08448400;2023-04-01T05:47:45;10.60;99.90
17333;DHT22;8784;50.94667800;7.08448400;2023-04-01T05:50:13;10.60;99.90
17333;DHT22;8784;50.94667800;7.08448400;2023-04-01T05:52:40;10.60;99.90
17333;DHT22;8784;50.94667800;7.08448400;2023-04-01T05:55:08;10.60;99.90
17333;DHT22;8784;50.94667800;7.08448400;2023-04-01T05:57:35;10.60;99.90
17333;DHT22;8784;50.94667800;7.08448400;2023-04-01T06:00:02;10.70;99.90
17333;DHT22;8784;50.94667800;7.08448400;2023-04-01T06:02:29;10.70;99.90
17333;DHT22;8784;50.94667800;7.08448400;2023-04-01T06:05:03;10.60;99.90
17333;DHT22;8784;50.94667800;7.08448400;2023-04-01T06:07:37;10.60;99.90
17333;DHT22;8784;50.94667800;7.08448400;2023-04-01T06:10:11;10.60;99.90
17333;DHT22;8784;50.94667800;7.08448400;2023-04-01T06:12:51;10.50;99.90
17333;DHT22;8784;50.94667800;7.08448400;2023-04-01T06:15:36;10.60;99.90
17333;DHT22;8784;50.94667800;7.08448400;2023-04-01T06:18:36;10.70;99.90
17333;DHT22;8784;50.94667800;7.08448400;2023-04-01T06:21:17;10.70;99.90
17333;DHT22;8784;50.94667800;7.08448400;2023-04-01T06:23:57;10.70;99.90
17333;DHT22;8784;50.94667800;7.08448400;2023-04-01T06:26:34;10.80;99.90
17333;DHT22;8784;50.94667800;7.08448400;2023-04-01T06:32:31;10.70;99.90
17333;DHT22;8784;50.94667800;7.08448400;2023-04-01T06:35:26;10.80;99.90
17333;DHT22;8784;50.94667800;7.08448400;2023-04-01T06:38:29;10.80;99.90
17333;DHT22;8784;50.94667800;7.08448400;2023-04-01T06:44:05;10.90;99.90
17333;DHT22;8784;50.94667800;7.08448400;2023-04-01T06:46:42;10.90;99.90
17333;DHT22;8784;50.94667800;7.08448400;2023-04-01T06:49:24;10.90;99.90
17333;DHT22;8784;50.94667800;7.08448400;2023-04-01T06:52:00;10.90;99.90
17333;DHT22;8784;50.94667800;7.08448400;2023-04-01T06:54:32;10.90;99.90
17333;DHT22;8784;50.94667800;7.08448400;2023-04-01T06:57:08;11.00;99.90
17333;DHT22;8784;50.94667800;7.08448400;2023-04-01T06:59:40;10.90;99.90
17333;DHT22;8784;50.94667800;7.08448400;2023-04-01T07:02:19;11.00;99.90
17333;DHT22;8784;50.94667800;7.08448400;2023-04-01T07:04:49;11.20;99.90
17333;DHT22;8784;50.94667800;7.08448400;2023-04-01T07:07:24;11.20;99.90
17333;DHT22;8784;50.94667800;7.08448400;2023-04-01T07:09:55;11.20;99.90
17333;DHT22;8784;50.94667800;7.08448400;2023-04-01T07:12:36;11.20;99.90
17333;DHT22;8784;50.94667800;7.08448400;2023-04-01T07:15:13;11.20;99.90
17333;DHT22;8784;50.94667800;7.08448400;2023-04-01T07:17:42;11.30;99.90
17333;DHT22;8784;50.94667800;7.08448400;2023-04-01T07:20:13;11.30;99.90
17333;DHT22;8784;50.94667800;7.08448400;2023-04-01T07:22:44;11.20;99.90
17333;DHT22;8784;50.94667800;7.08448400;2023-04-01T07:25:13;11.20;99.90
17333;DHT22;8784;50.94667800;7.08448400;2023-04-01T07:27:43;11.10;99.90
17333;DHT22;8784;50.94667800;7.08448400;2023-04-01T07:30:14;11.10;99.90
17333;DHT22;8784;50.94667800;7.08448400;2023-04-01T07:32:45;11.20;99.90
17333;DHT22;8784;50.94667800;7.08448400;2023-04-01T07:35:21;11.20;99.90
17333;DHT22;8784;50.94667800;7.08448400;2023-04-01T07:38:02;11.10;99.90
17333;DHT22;8784;50.94667800;7.08448400;2023-04-01T07:40:35;11.10;99.90
17333;DHT22;8784;50.94667800;7.08448400;2023-04-01T07:43:17;11.20;99.90
17333;DHT22;8784;50.94667800;7.08448400;2023-04-01T07:45:51;11.10;99.90
17333;DHT22;8784;50.94667800;7.08448400;2023-04-01T07:48:26;11.20;99.90
17333;DHT22;8784;50.94667800;7.08448400;2023-04-01T07:51:02;11.30;99.90
17333;DHT22;8784;50.94667800;7.08448400;2023-04-01T07:53:35;11.20;99.90
17333;DHT22;8784;50.94667800;7.08448400;2023-04-01T07:56:07;11.10;99.90
17333;DHT22;8784;50.94667800;7.08448400;2023-04-01T07:58:45;11.10;99.90
17333;DHT22;8784;50.94667800;7.08448400;2023-04-01T08:01:23;11.10;99.90
17333;DHT22;8784;50.94667800;7.08448400;2023-04-01T08:04:17;11.10;99.90
17333;DHT22;8784;50.94667800;7.08448400;2023-04-01T08:06:50;11.10;99.90
17333;DHT22;8784;50.94667800;7.08448400;2023-04-01T08:09:25;11.10;99.90
17333;DHT22;8784;50.94667800;7.08448400;2023-04-01T08:12:04;11.10;99.90
17333;DHT22;8784;50.94667800;7.08448400;2023-04-01T08:14:44;11.20;99.90
17333;DHT22;8784;50.94667800;7.08448400;2023-04-01T08:17:16;11.20;99.90
17333;DHT22;8784;50.94667800;7.08448400;2023-04-01T08:19:56;11.20;99.90
17333;DHT22;8784;50.94667800;7.08448400;2023-04-01T08:22:30;11.30;99.90
17333;DHT22;8784;50.94667800;7.08448400;2023-04-01T08:25:03;11.40;99.90
17333;DHT22;8784;50.94667800;7.08448400;2023-04-01T08:27:37;11.40;99.90
17333;DHT22;8784;50.94667800;7.08448400;2023-04-01T08:30:16;11.40;99.90
17333;DHT22;8784;50.94667800;7.08448400;2023-04-01T08:32:47;11.40;99.90
17333;DHT22;8784;50.94667800;7.08448400;2023-04-01T08:35:19;11.40;99.90
17333;DHT22;8784;50.94667800;7.08448400;2023-04-01T08:37:47;11.40;99.90
17333;DHT22;8784;50.94667800;7.08448400;2023-04-01T08:40:37;11.40;99.90
17333;DHT22;8784;50.94667800;7.08448400;2023-04-01T08:43:09;11.40;99.90
17333;DHT22;8784;50.94667800;7.08448400;2023-04-01T08:46:06;11.40;99.90
17333;DHT22;8784;50.94667800;7.08448400;2023-04-01T08:49:00;11.30;99.90
17333;DHT22;8784;50.94667800;7.08448400;2023-04-01T08:51:49;11.40;99.90
17333;DHT22;8784;50.94667800;7.08448400;2023-04-01T08:54:36;11.50;99.90
17333;DHT22;8784;50.94667800;7.08448400;2023-04-01T08:57:15;11.50;99.90
17333;DHT22;8784;50.94667800;7.08448400;2023-04-01T08:59:54;11.50;99.90
17333;DHT22;8784;50.94667800;7.08448400;2023-04-01T09:02:54;11.60;99.90
17333;DHT22;8784;50.94667800;7.08448400;2023-04-01T09:08:29;11.70;99.90
17333;DHT22;8784;50.94667800;7.08448400;2023-04-01T09:11:08;11.70;99.90
17333;DHT22;8784;50.94667800;7.08448400;2023-04-01T09:14:01;11.70;99.90
17333;DHT22;8784;50.94667800;7.08448400;2023-04-01T09:16:51;11.70;99.90
17333;DHT22;8784;50.94667800;7.08448400;2023-04-01T09:19:28;11.70;99.90
17333;DHT22;8784;50.94667800;7.08448400;2023-04-01T09:22:22;11.80;99.90
17333;DHT22;8784;50.94667800;7.08448400;2023-04-01T09:25:22;11.80;99.90
17333;DHT22;8784;50.94667800;7.08448400;2023-04-01T09:27:56;11.80;99.90
17333;DHT22;8784;50.94667800;7.08448400;2023-04-01T09:30:41;11.70;99.90
17333;DHT22;8784;50.94667800;7.08448400;2023-04-01T09:33:46;11.80;99.90
17333;DHT22;8784;50.94667800;7.08448400;2023-04-01T09:36:31;11.70;99.90
17333;DHT22;8784;50.94667800;7.08448400;2023-04-01T09:42:21;11.70;99.90
17333;DHT22;8784;50.94667800;7.08448400;2023-04-01T09:44:54;11.80;99.90
17333;DHT22;8784;50.94667800;7.08448400;2023-04-01T09:47:36;11.80;99.90
17333;DHT22;8784;50.94667800;7.08448400;2023-04-01T09:50:30;11.90;99.90
17333;DHT22;8784;50.94667800;7.08448400;2023-04-01T09:53:08;11.90;99.90
17333;DHT22;8784;50.94667800;7.08448400;2023-04-01T10:01:45;12.00;99.90
17333;DHT22;8784;50.94667800;7.08448400;2023-04-01T10:05:04;11.90;99.90
17333;DHT22;8784;50.94667800;7.08448400;2023-04-01T10:11:02;11.80;99.90
17333;DHT22;8784;50.94667800;7.08448400;2023-04-01T10:14:04;11.90;99.90
17333;DHT22;8784;50.94667800;7.08448400;2023-04-01T10:17:06;11.90;99.90
17333;DHT22;8784;50.94667800;7.08448400;2023-04-01T10:20:01;11.90;99.90
17333;DHT22;8784;50.94667800;7.08448400;2023-04-01T10:23:01;12.00;99.90
17333;DHT22;8784;50.94667800;7.08448400;2023-04-01T10:31:41;12.10;99.90
17333;DHT22;8784;50.94667800;7.08448400;2023-04-01T10:34:37;12.20;99.90
17333;DHT22;8784;50.94667800;7.08448400;2023-04-01T10:37:13;12.20;99.90
17333;DHT22;8784;50.94667800;7.08448400;2023-04-01T10:43:06;12.40;99.90
17333;DHT22;8784;50.94667800;7.08448400;2023-04-01T10:45:57;12.40;99.90
17333;DHT22;8784;50.94667800;7.08448400;2023-04-01T10:49:15;12.50;99.90
17333;DHT22;8784;50.94667800;7.08448400;2023-04-01T10:54:46;12.60;99.90
17333;DHT22;8784;50.94667800;7.08448400;2023-04-01T10:57:48;12.70;99.90
17333;DHT22;8784;50.94667800;7.08448400;2023-04-01T11:00:49;12.80;99.90
17333;DHT22;8784;50.94667800;7.08448400;2023-04-01T11:03:46;12.80;99.90
17333;DHT22;8784;50.94667800;7.08448400;2023-04-01T11:09:44;12.90;99.90
17333;DHT22;8784;50.94667800;7.08448400;2023-04-01T11:13:00;12.90;99.90
17333;DHT22;8784;50.94667800;7.08448400;2023-04-01T11:15:57;13.10;99.90
17333;DHT22;8784;50.94667800;7.08448400;2023-04-01T11:18:58;13.20;99.90
17333;DHT22;8784;50.94667800;7.08448400;2023-04-01T11:25:17;13.10;99.90
17333;DHT22;8784;50.94667800;7.08448400;2023-04-01T11:27:59;13.10;99.90
17333;DHT22;8784;50.94667800;7.08448400;2023-04-01T11:30:41;13.10;99.90
17333;DHT22;8784;50.94667800;7.08448400;2023-04-01T11:33:16;13.20;99.90
17333;DHT22;8784;50.94667800;7.08448400;2023-04-01T11:35:58;13.20;99.90
17333;DHT22;8784;50.94667800;7.08448400;2023-04-01T11:38:50;13.10;99.90
17333;DHT22;8784;50.94667800;7.08448400;2023-04-01T11:41:28;13.10;99.90
17333;DHT22;8784;50.94667800;7.08448400;2023-04-01T11:44:12;13.10;99.90
17333;DHT22;8784;50.94667800;7.08448400;2023-04-01T11:46:50;13.30;99.90
17333;DHT22;8784;50.94667800;7.08448400;2023-04-01T11:49:33;13.40;99.90
17333;DHT22;8784;50.94667800;7.08448400;2023-04-01T11:52:17;13.50;99.90
17333;DHT22;8784;50.94667800;7.08448400;2023-04-01T11:55:19;13.50;99.90
17333;DHT22;8784;50.94667800;7.08448400;2023-04-01T11:58:18;13.50;99.90
17333;DHT22;8784;50.94667800;7.08448400;2023-04-01T12:01:01;13.50;99.90
17333;DHT22;8784;50.94667800;7.08448400;2023-04-01T12:03:54;13.60;99.90
17333;DHT22;8784;50.94667800;7.08448400;2023-04-01T12:06:34;13.80;99.90
17333;DHT22;8784;50.94667800;7.08448400;2023-04-01T12:09:10;13.80;99.90
17333;DHT22;8784;50.94667800;7.08448400;2023-04-01T12:11:48;13.80;99.90
17333;DHT22;8784;50.94667800;7.08448400;2023-04-01T12:14:20;13.80;99.90
17333;DHT22;8784;50.94667800;7.08448400;2023-04-01T12:16:58;13.70;99.90
17333;DHT22;8784;50.94667800;7.08448400;2023-04-01T12:19:35;13.70;99.90
17333;DHT22;8784;50.94667800;7.08448400;2023-04-01T12:22:12;13.70;99.90
17333;DHT22;8784;50.94667800;7.08448400;2023-04-01T12:24:47;13.70;99.90
17333;DHT22;8784;50.94667800;7.08448400;2023-04-01T12:27:32;13.80;99.90
17333;DHT22;8784;50.94667800;7.08448400;2023-04-01T12:30:30;13.80;99.90
17333;DHT22;8784;50.94667800;7.08448400;2023-04-01T12:33:11;13.80;99.90
17333;DHT22;8784;50.94667800;7.08448400;2023-04-01T12:35:53;13.90;99.90
17333;DHT22;8784;50.94667800;7.08448400;2023-04-01T12:38:31;13.90;99.90
17333;DHT22;8784;50.94667800;7.08448400;2023-04-01T12:41:08;13.80;99.90
17333;DHT22;8784;50.94667800;7.08448400;2023-04-01T12:47:07;13.80;99.90
17333;DHT22;8784;50.94667800;7.08448400;2023-04-01T12:50:05;13.80;99.90
17333;DHT22;8784;50.94667800;7.08448400;2023-04-01T12:52:46;13.80;99.90
17333;DHT22;8784;50.94667800;7.08448400;2023-04-01T12:55:35;13.70;99.90
17333;DHT22;8784;50.94667800;7.08448400;2023-04-01T13:04:33;13.60;99.90
17333;DHT22;8784;50.94667800;7.08448400;2023-04-01T13:10:01;13.50;99.90
17333;DHT22;8784;50.94667800;7.08448400;2023-04-01T13:13:01;13.60;99.90
17333;DHT22;8784;50.94667800;7.08448400;2023-04-01T13:15:37;13.50;99.90
17333;DHT22;8784;50.94667800;7.08448400;2023-04-01T13:18:17;13.40;99.90
17333;DHT22;8784;50.94667800;7.08448400;2023-04-01T13:20:54;13.40;99.90
17333;DHT22;8784;50.94667800;7.08448400;2023-04-01T13:23:34;13.40;99.90
17333;DHT22;8784;50.94667800;7.08448400;2023-04-01T13:26:11;13.50;99.90
17333;DHT22;8784;50.94667800;7.08448400;2023-04-01T13:28:43;13.50;99.90
17333;DHT22;8784;50.94667800;7.08448400;2023-04-01T13:31:26;13.60;99.90
17333;DHT22;8784;50.94667800;7.08448400;2023-04-01T13:34:06;13.60;99.90
17333;DHT22;8784;50.94667800;7.08448400;2023-04-01T13:36:41;13.60;99.90
17333;DHT22;8784;50.94667800;7.08448400;2023-04-01T13:39:31;13.60;99.90
17333;DHT22;8784;50.94667800;7.08448400;2023-04-01T13:42:12;13.60;99.90
17333;DHT22;8784;50.94667800;7.08448400;2023-04-01T13:44:45;13.60;99.90
17333;DHT22;8784;50.94667800;7.08448400;2023-04-01T13:50:36;13.60;99.90
17333;DHT22;8784;50.94667800;7.08448400;2023-04-01T13:53:28;13.60;99.90
17333;DHT22;8784;50.94667800;7.08448400;2023-04-01T13:56:08;13.60;99.90
17333;DHT22;8784;50.94667800;7.08448400;2023-04-01T13:59:02;13.50;99.90
17333;DHT22;8784;50.94667800;7.08448400;2023-04-01T14:01:37;13.30;99.90
17333;DHT22;8784;50.94667800;7.08448400;2023-04-01T14:04:32;13.10;99.90
17333;DHT22;8784;50.94667800;7.08448400;2023-04-01T14:07:11;12.90;99.90
17333;DHT22;8784;50.94667800;7.08448400;2023-04-01T14:10:07;12.80;99.90
17333;DHT22;8784;50.94667800;7.08448400;2023-04-01T14:12:41;12.80;99.90
17333;DHT22;8784;50.94667800;7.08448400;2023-04-01T14:15:41;12.70;99.90
17333;DHT22;8784;50.94667800;7.08448400;2023-04-01T14:18:28;12.60;99.90
17333;DHT22;8784;50.94667800;7.08448400;2023-04-01T14:21:11;12.60;99.90
17333;DHT22;8784;50.94667800;7.08448400;2023-04-01T14:27:13;12.60;99.90
17333;DHT22;8784;50.94667800;7.08448400;2023-04-01T14:29:52;12.70;99.90
17333;DHT22;8784;50.94667800;7.08448400;2023-04-01T14:32:31;12.70;99.90
17333;DHT22;8784;50.94667800;7.08448400;2023-04-01T14:35:11;12.60;99.90
17333;DHT22;8784;50.94667800;7.08448400;2023-04-01T14:40:48;12.50;99.90
17333;DHT22;8784;50.94667800;7.08448400;2023-04-01T14:43:47;12.50;99.90
17333;DHT22;8784;50.94667800;7.08448400;2023-04-01T14:49:20;12.40;99.90
17333;DHT22;8784;50.94667800;7.08448400;2023-04-01T14:51:48;12.40;99.90
17333;DHT22;8784;50.94667800;7.08448400;2023-04-01T14:54:19;12.40;99.90
17333;DHT22;8784;50.94667800;7.08448400;2023-04-01T14:56:51;12.40;99.90
17333;DHT22;8784;50.94667800;7.08448400;2023-04-01T14:59:28;12.30;99.90
17333;DHT22;8784;50.94667800;7.08448400;2023-04-01T15:01:59;12.30;99.90
17333;DHT22;8784;50.94667800;7.08448400;2023-04-01T15:04:44;12.30;99.90
17333;DHT22;8784;50.94667800;7.08448400;2023-04-01T15:07:42;12.40;99.90
17333;DHT22;8784;50.94667800;7.08448400;2023-04-01T15:10:32;12.40;99.90
17333;DHT22;8784;50.94667800;7.08448400;2023-04-01T15:13:13;12.50;99.90
17333;DHT22;8784;50.94667800;7.08448400;2023-04-01T15:15:51;12.50;99.90
17333;DHT22;8784;50.94667800;7.08448400;2023-04-01T15:18:30;12.60;99.90
17333;DHT22;8784;50.94667800;7.08448400;2023-04-01T15:21:13;12.60;99.90
17333;DHT22;8784;50.94667800;7.08448400;2023-04-01T15:23:54;12.60;99.90
17333;DHT22;8784;50.94667800;7.08448400;2023-04-01T15:26:34;12.70;99.90
17333;DHT22;8784;50.94667800;7.08448400;2023-04-01T15:29:20;12.60;99.90
17333;DHT22;8784;50.94667800;7.08448400;2023-04-01T15:31:53;12.70;99.90